createdAt,value
2017-11-03T00:01:34.114Z,100596.34
2017-11-03T00:04:01.582Z,100591.98
2017-11-03T00:06:29.027Z,100594.20
2017-11-03T00:08:56.567Z,100591.04
2017-11-03T00:11:24.016Z,100588.83
2017-11-03T00:13:51.483Z,100585.34
2017-11-03T00:16:18.930Z,100592.84
2017-11-03T00:18:46.387Z,100595.66
2017-11-03T00:21:13.852Z,100590.02
2017-11-03T00:23:41.310Z,100593.48
2017-11-03T00:26:08.754Z,100597.08
2017-11-03T00:28:36.217Z,100600.20
2017-11-03T00:31:03.678Z,100603.80
2017-11-03T00:33:31.146Z,100601.14
2017-11-03T00:35:58.595Z,100595.02
2017-11-03T00:38:26.107Z,100588.48
2017-11-03T00:40:53.554Z,100592.42
2017-11-03T00:43:21.010Z,100589.37
2017-11-03T00:45:48.508Z,100592.92
2017-11-03T00:48:15.954Z,100589.87
2017-11-03T00:50:43.418Z,100592.47
2017-11-03T00:53:10.867Z,100600.05
2017-11-03T00:55:38.448Z,100594.72
2017-11-03T00:58:05.908Z,100599.11
2017-11-03T01:00:33.408Z,100593.83
2017-11-03T01:03:00.869Z,100599.17
2017-11-03T01:05:28.346Z,100599.22
2017-11-03T01:07:55.875Z,100593.95
2017-11-03T01:10:23.360Z,100595.72
2017-11-03T01:12:50.807Z,100592.20
2017-11-03T01:15:18.304Z,100593.11
2017-11-03T01:17:45.751Z,100587.38
2017-11-03T01:20:13.206Z,100589.17
2017-11-03T01:22:40.669Z,100592.67
2017-11-03T01:25:08.141Z,100589.13
2017-11-03T01:27:35.621Z,100593.50
2017-11-03T01:30:03.084Z,100584.30
2017-11-03T01:32:30.574Z,100589.94
2017-11-03T01:34:58.045Z,100587.38
2017-11-03T01:37:25.524Z,100591.33
2017-11-03T01:39:52.981Z,100591.36
2017-11-03T01:42:20.468Z,100593.11
2017-11-03T01:44:47.924Z,100595.77
2017-11-03T01:47:15.406Z,100605.83
2017-11-03T01:49:42.861Z,100599.70
2017-11-03T01:52:10.345Z,100597.95
2017-11-03T01:54:37.816Z,100593.98
2017-11-03T01:57:05.279Z,100594.88
2017-11-03T01:59:32.764Z,100597.48
2017-11-03T02:02:00.225Z,100601.88
2017-11-03T02:04:27.712Z,100597.92
2017-11-03T02:06:55.166Z,100590.46
2017-11-03T02:09:22.968Z,100601.88
2017-11-03T02:11:50.434Z,100594.86
2017-11-03T02:14:17.913Z,100599.68
2017-11-03T02:16:45.449Z,100604.95
2017-11-03T02:19:12.929Z,100598.34
2017-11-03T02:21:40.384Z,100597.49
2017-11-03T02:24:07.862Z,100600.10
2017-11-03T02:26:35.324Z,100608.41
2017-11-03T02:29:02.805Z,100604.89
2017-11-03T02:31:30.266Z,100606.61
2017-11-03T02:33:57.784Z,100603.98
2017-11-03T02:36:25.257Z,100611.50
2017-11-03T02:38:52.724Z,100617.17
2017-11-03T02:41:20.228Z,100615.89
2017-11-03T02:43:47.728Z,100610.95
2017-11-03T02:46:15.201Z,100613.14
2017-11-03T02:48:42.678Z,100617.17
2017-11-03T02:51:10.165Z,100616.26
2017-11-03T02:53:37.625Z,100615.81
2017-11-03T02:56:05.099Z,100618.48
2017-11-03T02:58:32.557Z,100611.94
2017-11-03T03:01:00.032Z,100609.77
2017-11-03T03:03:27.502Z,100601.00
2017-11-03T03:05:54.981Z,100608.91
2017-11-03T03:08:22.451Z,100603.63
2017-11-03T03:10:49.940Z,100604.54
2017-11-03T03:13:17.421Z,100602.31
2017-11-03T03:15:45.008Z,100597.52
2017-11-03T03:18:12.464Z,100595.73
2017-11-03T03:20:40.025Z,100597.07
2017-11-03T03:23:07.476Z,100596.61
2017-11-03T03:25:34.936Z,100601.45
2017-11-03T03:28:02.426Z,100601.01
2017-11-03T03:30:29.889Z,100606.25
2017-11-03T03:32:57.413Z,100612.40
2017-11-03T03:35:24.982Z,100613.28
2017-11-03T03:37:52.529Z,100612.84
2017-11-03T03:40:19.980Z,100615.86
2017-11-03T03:42:47.462Z,100614.11
2017-11-03T03:45:15.435Z,100620.23
2017-11-03T03:47:42.917Z,100616.25
2017-11-03T03:50:10.368Z,100618.41
2017-11-03T03:52:37.864Z,100629.84
2017-11-03T03:55:05.329Z,100617.13
2017-11-03T03:57:32.804Z,100625.45
2017-11-03T04:00:00.278Z,100625.50
2017-11-03T04:02:27.771Z,100623.31
2017-11-03T04:04:55.259Z,100636.91
2017-11-03T04:07:22.742Z,100637.41
2017-11-03T04:09:50.212Z,100635.22
2017-11-03T04:12:17.717Z,100632.14
2017-11-03T04:14:45.182Z,100628.62
2017-11-03T04:17:12.648Z,100628.19
2017-11-03T04:19:40.140Z,100629.05
2017-11-03T04:22:07.602Z,100635.66
2017-11-03T04:24:35.084Z,100623.36
2017-11-03T04:27:02.576Z,100626.44
2017-11-03T04:29:30.063Z,100618.99
2017-11-03T04:31:57.524Z,100619.89
2017-11-03T04:34:25.000Z,100621.62
2017-11-03T04:36:52.452Z,100619.47
2017-11-03T04:39:19.921Z,100621.20
2017-11-03T04:41:47.406Z,100619.89
2017-11-03T04:44:14.876Z,100620.78
2017-11-03T04:46:42.456Z,100620.77
2017-11-03T04:49:10.002Z,100623.84
2017-11-03T04:51:37.496Z,100620.77
2017-11-03T04:54:05.000Z,100626.02
2017-11-03T04:56:32.462Z,100625.17
2017-11-03T04:58:59.951Z,100622.52
2017-11-03T05:01:27.416Z,100614.17
2017-11-03T05:03:54.969Z,100616.80
2017-11-03T05:06:22.433Z,100617.16
2017-11-03T05:08:49.931Z,100617.16
2017-11-03T05:11:17.409Z,100615.87
2017-11-03T05:13:44.869Z,100616.67
2017-11-03T05:16:12.350Z,100611.02
2017-11-03T05:18:39.836Z,100609.61
2017-11-03T05:21:07.312Z,100603.74
2017-11-03T05:23:34.772Z,100613.57
2017-11-03T05:26:02.352Z,100617.13
2017-11-03T05:28:29.824Z,100618.88
2017-11-03T05:30:57.315Z,100616.67
2017-11-03T05:33:24.801Z,100617.56
2017-11-03T05:35:52.287Z,100614.49
2017-11-03T05:38:19.761Z,100618.43
2017-11-03T05:40:47.254Z,100617.58
2017-11-03T05:43:14.752Z,100621.97
2017-11-03T05:45:42.247Z,100625.43
2017-11-03T05:48:09.709Z,100623.24
2017-11-03T05:50:37.192Z,100626.74
2017-11-03T05:53:04.680Z,100634.66
2017-11-03T05:55:32.173Z,100635.55
2017-11-03T05:57:59.693Z,100634.67
2017-11-03T06:00:27.182Z,100635.52
2017-11-03T06:02:54.648Z,100629.36
2017-11-03T06:05:22.170Z,100634.61
2017-11-03T06:07:49.776Z,100629.38
2017-11-03T06:10:17.257Z,100625.83
2017-11-03T06:12:44.852Z,100623.70
2017-11-03T06:15:12.341Z,100627.20
2017-11-03T06:17:39.819Z,100631.14
2017-11-03T06:20:07.277Z,100633.73
2017-11-03T06:22:34.824Z,100635.94
2017-11-03T06:25:02.295Z,100637.66
2017-11-03T06:27:29.787Z,100633.73
2017-11-03T06:29:58.173Z,100635.50
2017-11-03T06:32:25.741Z,100638.55
2017-11-03T06:34:53.220Z,100640.75
2017-11-03T06:37:20.711Z,100645.52
2017-11-03T06:39:48.172Z,100646.91
2017-11-03T06:42:15.645Z,100644.64
2017-11-03T06:44:43.112Z,100644.61
2017-11-03T06:47:10.614Z,100652.16
2017-11-03T06:49:38.092Z,100652.16
2017-11-03T06:52:05.568Z,100650.02
2017-11-03T06:54:33.038Z,100650.84
2017-11-03T06:57:00.702Z,100657.92
2017-11-03T06:59:28.164Z,100654.81
2017-11-03T07:01:55.733Z,100663.66
2017-11-03T07:04:23.230Z,100650.87
2017-11-03T07:06:50.712Z,100653.92
2017-11-03T07:09:18.208Z,100651.30
2017-11-03T07:11:45.668Z,100653.89
2017-11-03T07:14:13.157Z,100657.84
2017-11-03T07:16:40.619Z,100661.33
2017-11-03T07:19:08.113Z,100659.62
2017-11-03T07:21:35.581Z,100660.92
2017-11-03T07:24:03.065Z,100662.67
2017-11-03T07:26:30.646Z,100670.64
2017-11-03T07:28:58.142Z,100669.74
2017-11-03T07:31:25.612Z,100667.51
2017-11-03T07:33:53.160Z,100662.25
2017-11-03T07:36:20.632Z,100667.97
2017-11-03T07:38:48.121Z,100671.49
2017-11-03T07:41:15.596Z,100670.13
2017-11-03T07:43:43.100Z,100669.48
2017-11-03T07:46:10.560Z,100667.90
2017-11-03T07:48:38.104Z,100663.84
2017-11-03T07:51:05.565Z,100663.89
2017-11-03T07:53:33.149Z,100667.01
2017-11-03T07:56:00.621Z,100666.55
2017-11-03T07:58:28.128Z,100667.80
2017-11-03T08:00:55.602Z,100665.62
2017-11-03T08:03:23.060Z,100664.73
2017-11-03T08:05:50.536Z,100664.28
2017-11-03T08:08:17.993Z,100656.39
2017-11-03T08:10:45.486Z,100666.47
2017-11-03T08:13:12.964Z,100668.59
2017-11-03T08:15:40.454Z,100666.77
2017-11-03T08:18:07.988Z,100669.91
2017-11-03T08:20:35.465Z,100667.54
2017-11-03T08:23:02.927Z,100661.84
2017-11-03T08:25:30.417Z,100661.98
2017-11-03T08:27:57.881Z,100661.09
2017-11-03T08:30:25.360Z,100664.22
2017-11-03T08:32:52.856Z,100660.76
2017-11-03T08:35:20.330Z,100663.39
2017-11-03T08:37:47.802Z,100659.27
2017-11-03T08:40:15.288Z,100660.48
2017-11-03T08:42:42.771Z,100656.05
2017-11-03T08:45:10.266Z,100652.52
2017-11-03T08:47:37.750Z,100660.36
2017-11-03T08:50:05.229Z,100655.96
2017-11-03T08:52:32.810Z,100660.75
2017-11-03T08:55:00.269Z,100653.71
2017-11-03T08:57:27.852Z,100652.77
2017-11-03T08:59:55.341Z,100654.16
2017-11-03T09:02:22.974Z,100652.55
2017-11-03T09:04:50.444Z,100656.41
2017-11-03T09:07:17.920Z,100648.74
2017-11-03T09:09:45.384Z,100654.54
2017-11-03T09:12:12.861Z,100655.88
2017-11-03T09:14:40.359Z,100661.98
2017-11-03T09:17:07.869Z,100658.92
2017-11-03T09:19:35.342Z,100666.36
2017-11-03T09:22:02.833Z,100658.39
2017-11-03T09:24:30.296Z,100666.12
2017-11-03T09:26:57.774Z,100662.54
2017-11-03T09:29:25.236Z,100663.41
2017-11-03T09:31:52.737Z,100672.08
2017-11-03T09:34:20.196Z,100668.09
2017-11-03T09:36:47.677Z,100667.19
2017-11-03T09:39:15.162Z,100661.91
2017-11-03T09:41:42.643Z,100655.36
2017-11-03T09:44:10.279Z,100659.30
2017-11-03T09:46:37.759Z,100660.02
2017-11-03T09:49:05.249Z,100651.73
2017-11-03T09:51:32.796Z,100651.90
2017-11-03T09:54:00.316Z,100650.41
2017-11-03T09:56:27.779Z,100648.90
2017-11-03T09:58:55.429Z,100650.15
2017-11-03T10:01:22.888Z,100645.23
2017-11-03T10:03:50.473Z,100651.98
2017-11-03T10:06:17.933Z,100659.31
2017-11-03T10:08:45.413Z,100654.03
2017-11-03T10:11:12.864Z,100646.64
2017-11-03T10:13:40.360Z,100651.73
2017-11-03T10:16:07.834Z,100649.10
2017-11-03T10:18:35.409Z,100650.11
2017-11-03T10:21:02.873Z,100649.89
2017-11-03T10:23:30.341Z,100644.88
2017-11-03T10:25:57.827Z,100639.84
2017-11-03T10:28:25.321Z,100640.14
2017-11-03T10:30:52.817Z,100636.93
2017-11-03T10:33:20.316Z,100635.73
2017-11-03T10:35:47.917Z,100631.74
2017-11-03T10:38:15.557Z,100632.27
2017-11-03T10:40:43.126Z,100629.48
2017-11-03T10:43:10.753Z,100621.89
2017-11-03T10:45:38.236Z,100623.73
2017-11-03T10:48:05.708Z,100621.58
2017-11-03T10:50:33.192Z,100619.06
2017-11-03T10:53:00.689Z,100617.59
2017-11-03T10:55:28.185Z,100609.82
2017-11-03T10:57:55.732Z,100610.16
2017-11-03T11:00:23.230Z,100615.05
2017-11-03T11:02:50.708Z,100617.41
2017-11-03T11:05:18.261Z,100623.89
2017-11-03T11:07:46.293Z,100611.30
2017-11-03T11:10:13.763Z,100604.52
2017-11-03T11:12:41.298Z,100609.37
2017-11-03T11:15:08.802Z,100612.09
2017-11-03T11:17:36.273Z,100600.47
2017-11-03T11:20:03.732Z,100600.73
2017-11-03T11:22:31.229Z,100598.83
2017-11-03T11:24:58.687Z,100602.36
2017-11-03T11:27:26.237Z,100594.92
2017-11-03T11:29:53.753Z,100588.48
2017-11-03T11:32:21.252Z,100589.31
2017-11-03T11:34:48.717Z,100584.84
2017-11-03T11:37:16.192Z,100579.52
2017-11-03T11:39:43.725Z,100592.20
2017-11-03T11:42:11.204Z,100598.47
2017-11-03T11:44:38.663Z,100597.58
2017-11-03T11:47:06.149Z,100593.57
2017-11-03T11:49:33.621Z,100585.75
2017-11-03T11:52:01.096Z,100583.41
2017-11-03T11:54:28.581Z,100577.16
2017-11-03T11:56:56.054Z,100575.53
2017-11-03T11:59:23.508Z,100572.63
2017-11-03T12:01:50.988Z,100567.16
2017-11-03T12:04:18.508Z,100556.48
2017-11-03T12:06:46.051Z,100550.72
2017-11-03T12:09:13.521Z,100552.98
2017-11-03T12:11:40.980Z,100545.03
2017-11-03T12:14:08.490Z,100545.73
2017-11-03T12:16:35.958Z,100554.38
2017-11-03T12:19:03.436Z,100554.05
2017-11-03T12:21:30.913Z,100546.09
2017-11-03T12:23:58.412Z,100532.46
2017-11-03T12:26:25.895Z,100528.78
2017-11-03T12:28:53.361Z,100522.81
2017-11-03T12:31:20.856Z,100524.69
2017-11-03T12:33:48.360Z,100524.23
2017-11-03T12:36:15.820Z,100525.41
2017-11-03T12:38:43.320Z,100521.78
2017-11-03T12:41:10.779Z,100517.23
2017-11-03T12:43:38.241Z,100517.03
2017-11-03T12:46:05.733Z,100521.13
2017-11-03T12:48:33.197Z,100518.83
2017-11-03T12:51:00.685Z,100516.58
2017-11-03T12:53:28.193Z,100515.17
2017-11-03T12:55:55.694Z,100514.27
2017-11-03T12:58:23.156Z,100515.94
2017-11-03T13:00:50.720Z,100516.58
2017-11-03T13:03:18.230Z,100511.55
2017-11-03T13:05:45.708Z,100506.47
2017-11-03T13:08:13.194Z,100506.64
2017-11-03T13:10:40.768Z,100507.88
2017-11-03T13:13:08.233Z,100498.80
2017-11-03T13:15:35.713Z,100499.92
2017-11-03T13:18:03.183Z,100502.48
2017-11-03T13:20:30.704Z,100492.84
2017-11-03T13:22:58.245Z,100488.81
2017-11-03T13:25:25.726Z,100480.18
2017-11-03T13:27:53.197Z,100473.22
2017-11-03T13:30:20.689Z,100472.53
2017-11-03T13:32:48.158Z,100471.31
2017-11-03T13:35:16.108Z,100471.25
2017-11-03T13:37:43.577Z,100468.44
2017-11-03T13:40:11.147Z,100471.14
2017-11-03T13:42:38.696Z,100466.48
2017-11-03T13:45:06.175Z,100462.56
2017-11-03T13:47:33.662Z,100463.75
2017-11-03T13:50:01.127Z,100459.05
2017-11-03T13:52:28.620Z,100456.72
2017-11-03T13:54:56.113Z,100446.53
2017-11-03T13:57:23.605Z,100439.20
2017-11-03T13:59:51.073Z,100430.16
2017-11-03T14:02:18.678Z,100436.00
2017-11-03T14:04:46.232Z,100429.03
2017-11-03T14:07:13.718Z,100430.58
2017-11-03T14:09:41.180Z,100428.19
2017-11-03T14:12:08.696Z,100428.51
2017-11-03T14:14:36.244Z,100420.86
2017-11-03T14:17:03.714Z,100410.19
2017-11-03T14:19:31.197Z,100421.79
2017-11-03T14:21:58.670Z,100420.27
2017-11-03T14:24:26.154Z,100422.02
2017-11-03T14:26:53.617Z,100419.73
2017-11-03T14:29:21.249Z,100411.34
2017-11-03T14:31:48.900Z,100413.98
2017-11-03T14:34:16.521Z,100415.75
2017-11-03T14:36:45.444Z,100419.92
2017-11-03T14:39:13.599Z,100422.84
2017-11-03T14:41:41.081Z,100420.55
2017-11-03T14:44:08.592Z,100416.09
2017-11-03T14:46:36.056Z,100406.27
2017-11-03T14:49:03.574Z,100405.17
2017-11-03T14:51:31.036Z,100405.89
2017-11-03T14:53:58.519Z,100407.41
2017-11-03T14:56:26.005Z,100402.77
2017-11-03T14:58:53.465Z,100397.31
2017-11-03T15:01:20.997Z,100398.42
2017-11-03T15:03:48.493Z,100401.98
2017-11-03T15:06:15.980Z,100400.69
2017-11-03T15:08:43.469Z,100401.41
2017-11-03T15:11:10.961Z,100404.05
2017-11-03T15:13:38.448Z,100397.03
2017-11-03T15:16:05.942Z,100405.38
2017-11-03T15:18:33.421Z,100405.73
2017-11-03T15:21:00.916Z,100408.96
2017-11-03T15:23:28.405Z,100407.72
2017-11-03T15:25:55.896Z,100401.45
2017-11-03T15:28:23.378Z,100406.09
2017-11-03T15:30:50.845Z,100404.66
2017-11-03T15:33:18.436Z,100407.12
2017-11-03T15:35:45.896Z,100395.69
2017-11-03T15:38:13.385Z,100391.72
2017-11-03T15:40:40.858Z,100397.44
2017-11-03T15:43:08.362Z,100391.72
2017-11-03T15:45:35.823Z,100386.47
2017-11-03T15:48:03.336Z,100394.89
2017-11-03T15:50:30.805Z,100386.72
2017-11-03T15:52:58.293Z,100385.55
2017-11-03T15:55:25.817Z,100378.47
2017-11-03T15:57:53.418Z,100373.45
2017-11-03T16:00:20.966Z,100378.17
2017-11-03T16:02:48.477Z,100378.36
2017-11-03T16:05:16.676Z,100372.13
2017-11-03T16:07:44.142Z,100372.81
2017-11-03T16:10:11.632Z,100362.81
2017-11-03T16:12:39.181Z,100363.83
2017-11-03T16:15:06.742Z,100359.81
2017-11-03T16:17:34.217Z,100360.34
2017-11-03T16:20:01.704Z,100361.50
2017-11-03T16:22:29.184Z,100362.33
2017-11-03T16:24:56.673Z,100357.67
2017-11-03T16:27:24.176Z,100359.50
2017-11-03T16:29:51.656Z,100358.41
2017-11-03T16:32:19.134Z,100357.69
2017-11-03T16:34:46.705Z,100365.14
2017-11-03T16:37:14.247Z,100364.59
2017-11-03T16:39:41.706Z,100364.61
2017-11-03T16:42:09.213Z,100366.39
2017-11-03T16:44:36.672Z,100373.70
2017-11-03T16:47:04.152Z,100359.13
2017-11-03T16:49:31.616Z,100360.89
2017-11-03T16:51:59.096Z,100363.53
2017-11-03T16:54:26.578Z,100357.88
2017-11-03T16:56:54.070Z,100357.53
2017-11-03T16:59:21.564Z,100358.85
2017-11-03T17:01:49.053Z,100360.43
2017-11-03T17:04:16.587Z,100361.10
2017-11-03T17:06:44.147Z,100360.31
2017-11-03T17:09:11.637Z,100355.77
2017-11-03T17:11:39.172Z,100356.64
2017-11-03T17:14:06.630Z,100366.86
2017-11-03T17:16:34.098Z,100360.21
2017-11-03T17:19:01.585Z,100360.77
2017-11-03T17:21:29.075Z,100365.86
2017-11-03T17:23:56.578Z,100369.92
2017-11-03T17:26:24.060Z,100368.40
2017-11-03T17:28:51.563Z,100366.89
2017-11-03T17:31:19.033Z,100364.17
2017-11-03T17:33:46.525Z,100369.91
2017-11-03T17:36:13.994Z,100370.27
2017-11-03T17:38:41.472Z,100367.82
2017-11-03T17:41:08.932Z,100359.89
2017-11-03T17:43:36.417Z,100355.47
2017-11-03T17:46:03.911Z,100354.50
2017-11-03T17:48:31.373Z,100352.83
2017-11-03T17:50:58.862Z,100361.34
2017-11-03T17:53:26.325Z,100358.43
2017-11-03T17:55:53.804Z,100355.91
2017-11-03T17:58:21.265Z,100353.23
2017-11-03T18:00:48.763Z,100359.94
2017-11-03T18:03:16.224Z,100361.81
2017-11-03T18:05:43.705Z,100358.02
2017-11-03T18:08:11.265Z,100361.52
2017-11-03T18:10:38.765Z,100357.38
2017-11-03T18:13:06.300Z,100357.98
2017-11-03T18:15:33.813Z,100350.92
2017-11-03T18:18:01.296Z,100357.88
2017-11-03T18:20:28.764Z,100350.37
2017-11-03T18:22:56.243Z,100352.65
2017-11-03T18:25:23.729Z,100352.84
2017-11-03T18:27:51.227Z,100349.05
2017-11-03T18:30:18.692Z,100357.87
2017-11-03T18:32:46.169Z,100353.67
2017-11-03T18:35:13.638Z,100350.61
2017-11-03T18:37:41.153Z,100347.47
2017-11-03T18:40:08.661Z,100343.13
2017-11-03T18:42:36.151Z,100347.97
2017-11-03T18:45:03.629Z,100344.99
2017-11-03T18:47:31.116Z,100341.47
2017-11-03T18:49:58.767Z,100339.28
2017-11-03T18:52:26.277Z,100333.56
2017-11-03T18:54:53.741Z,100328.73
2017-11-03T18:57:21.205Z,100332.25
2017-11-03T18:59:48.698Z,100334.00
2017-11-03T19:02:18.096Z,100334.95
2017-11-03T19:04:45.581Z,100334.50
2017-11-03T19:07:13.036Z,100336.30
2017-11-03T19:09:40.517Z,100339.28
2017-11-03T19:12:07.976Z,100353.09
2017-11-03T19:14:35.460Z,100350.56
2017-11-03T19:17:02.921Z,100347.99
2017-11-03T19:19:30.401Z,100349.23
2017-11-03T19:21:58.563Z,100350.55
2017-11-03T19:24:26.103Z,100348.86
2017-11-03T19:26:53.561Z,100349.75
2017-11-03T19:29:21.040Z,100346.66
2017-11-03T19:31:48.500Z,100345.84
2017-11-03T19:34:15.980Z,100343.31
2017-11-03T19:36:43.433Z,100339.30
2017-11-03T19:39:10.975Z,100344.52
2017-11-03T19:41:38.435Z,100334.49
2017-11-03T19:44:05.941Z,100332.78
2017-11-03T19:46:33.416Z,100333.61
2017-11-03T19:49:00.876Z,100324.83
2017-11-03T19:51:28.369Z,100326.23
2017-11-03T19:53:55.831Z,100330.21
2017-11-03T19:56:23.317Z,100326.27
2017-11-03T19:58:50.801Z,100327.16
2017-11-03T20:01:18.313Z,100325.88
2017-11-03T20:03:45.772Z,100328.95
2017-11-03T20:06:13.248Z,100324.14
2017-11-03T20:08:40.701Z,100324.17
2017-11-03T20:11:08.209Z,100326.84
2017-11-03T20:13:35.664Z,100324.67
2017-11-03T20:16:03.177Z,100322.87
2017-11-03T20:18:30.648Z,100326.81
2017-11-03T20:20:58.241Z,100316.30
2017-11-03T20:23:25.781Z,100317.20
2017-11-03T20:25:53.261Z,100318.13
2017-11-03T20:28:20.747Z,100320.74
2017-11-03T20:30:48.204Z,100321.59
2017-11-03T20:33:15.708Z,100311.05
2017-11-03T20:35:43.303Z,100322.39
2017-11-03T20:38:10.800Z,100311.37
2017-11-03T20:40:38.280Z,100311.37
2017-11-03T20:43:05.760Z,100308.31
2017-11-03T20:45:33.222Z,100300.86
2017-11-03T20:48:00.711Z,100312.25
2017-11-03T20:50:28.173Z,100313.11
2017-11-03T20:52:55.666Z,100315.75
2017-11-03T20:55:23.153Z,100311.77
2017-11-03T20:57:50.632Z,100311.29
2017-11-03T21:00:18.093Z,100304.20
2017-11-03T21:02:45.590Z,100307.70
2017-11-03T21:05:13.055Z,100299.83
2017-11-03T21:07:40.544Z,100302.88
2017-11-03T21:10:08.017Z,100291.82
2017-11-03T21:12:35.540Z,100295.77
2017-11-03T21:15:03.010Z,100290.94
2017-11-03T21:17:30.467Z,100283.94
2017-11-03T21:19:58.001Z,100286.09
2017-11-03T21:22:25.476Z,100276.35
2017-11-03T21:24:52.962Z,100280.77
2017-11-03T21:27:20.435Z,100289.95
2017-11-03T21:29:47.921Z,100281.19
2017-11-03T21:32:15.392Z,100279.52
2017-11-03T21:34:42.933Z,100278.11
2017-11-03T21:37:10.493Z,100276.33
2017-11-03T21:39:38.009Z,100279.84
2017-11-03T21:42:05.473Z,100279.24
2017-11-03T21:44:32.942Z,100271.78
2017-11-03T21:47:00.420Z,100259.94
2017-11-03T21:49:27.890Z,100256.80
2017-11-03T21:51:55.376Z,100256.33
2017-11-03T21:54:22.833Z,100261.50
2017-11-03T21:56:50.318Z,100259.09
2017-11-03T21:59:17.781Z,100259.58
2017-11-03T22:01:45.289Z,100260.42
2017-11-03T22:04:12.790Z,100258.70
2017-11-03T22:06:40.277Z,100259.12
2017-11-03T22:09:07.740Z,100262.27
2017-11-03T22:11:35.239Z,100261.34
2017-11-03T22:14:02.751Z,100254.36
2017-11-03T22:16:30.261Z,100250.78
2017-11-03T22:18:57.745Z,100256.20
2017-11-03T22:21:25.228Z,100258.75
2017-11-03T22:23:52.748Z,100250.77
2017-11-03T22:26:20.216Z,100254.27
2017-11-03T22:28:47.750Z,100255.55
2017-11-03T22:31:15.224Z,100252.00
2017-11-03T22:33:42.711Z,100263.83
2017-11-03T22:36:10.172Z,100265.62
2017-11-03T22:38:37.652Z,100261.84
2017-11-03T22:41:05.117Z,100259.06
2017-11-03T22:43:32.659Z,100257.81
2017-11-03T22:46:00.128Z,100256.91
2017-11-03T22:48:27.610Z,100263.48
2017-11-03T22:50:55.077Z,100258.81
2017-11-03T22:53:22.588Z,100258.52
2017-11-03T22:55:50.122Z,100259.02
2017-11-03T22:58:17.629Z,100259.05
2017-11-03T23:00:45.101Z,100256.27
2017-11-03T23:03:12.598Z,100256.83
2017-11-03T23:05:40.068Z,100247.59
2017-11-03T23:08:07.544Z,100247.66
2017-11-03T23:10:35.029Z,100245.98
2017-11-03T23:13:02.502Z,100243.72
2017-11-03T23:15:29.997Z,100244.41
2017-11-03T23:17:57.481Z,100237.56
2017-11-03T23:20:25.033Z,100234.12
2017-11-03T23:22:52.561Z,100232.12
2017-11-03T23:25:20.051Z,100240.35
2017-11-03T23:27:47.525Z,100234.98
2017-11-03T23:30:15.060Z,100239.63
2017-11-03T23:32:42.594Z,100236.16
2017-11-03T23:35:10.083Z,100226.61
2017-11-03T23:37:37.621Z,100225.66
2017-11-03T23:40:05.130Z,100216.32
2017-11-03T23:42:32.592Z,100215.17
2017-11-03T23:45:00.107Z,100214.64
2017-11-03T23:47:27.634Z,100206.08
2017-11-03T23:49:55.109Z,100207.44
2017-11-03T23:52:22.649Z,100209.63
2017-11-03T23:54:50.128Z,100203.55
2017-11-03T23:57:17.620Z,100207.55
2017-11-03T23:59:45.085Z,100206.95
